createdAt,value
2019-01-24T00:01:09.225Z,44.18
2019-01-24T00:03:38.510Z,42.50
2019-01-24T00:06:07.784Z,39.98
2019-01-24T00:08:36.979Z,44.10
2019-01-24T00:11:06.344Z,49.18
2019-01-24T00:13:35.912Z,39.95
2019-01-24T00:16:05.548Z,41.77
2019-01-24T00:18:34.851Z,49.45
2019-01-24T00:21:04.769Z,48.78
2019-01-24T00:23:34.026Z,46.63
2019-01-24T00:26:03.303Z,40.25
2019-01-24T00:28:32.501Z,42.30
2019-01-24T00:31:01.858Z,45.20
2019-01-24T00:33:31.099Z,45.50
2019-01-24T00:36:00.343Z,48.25
2019-01-24T00:38:29.622Z,47.73
2019-01-24T00:40:58.923Z,45.73
2019-01-24T00:43:28.194Z,45.60
2019-01-24T00:45:57.422Z,45.63
2019-01-24T00:48:26.712Z,46.13
2019-01-24T00:50:55.909Z,48.85
2019-01-24T00:53:25.274Z,44.53
2019-01-24T00:55:54.595Z,46.20
2019-01-24T00:58:23.898Z,43.52
2019-01-24T01:00:53.214Z,43.17
2019-01-24T01:03:22.518Z,45.85
2019-01-24T01:05:52.013Z,43.10
2019-01-24T01:08:21.224Z,43.45
2019-01-24T01:10:50.502Z,42.20
2019-01-24T01:13:19.754Z,44.20
2019-01-24T01:15:48.942Z,42.53
2019-01-24T01:18:18.142Z,37.42
2019-01-24T01:20:47.414Z,43.40
2019-01-24T01:23:16.596Z,39.08
2019-01-24T01:25:45.855Z,42.35
2019-01-24T01:28:15.099Z,41.70
2019-01-24T01:30:45.770Z,37.55
2019-01-24T01:33:15.050Z,36.33
2019-01-24T01:35:44.468Z,36.13
2019-01-24T01:38:13.755Z,36.13
2019-01-24T01:40:43.188Z,38.30
2019-01-24T01:43:12.747Z,40.67
2019-01-24T01:45:45.118Z,42.88
2019-01-24T01:48:14.439Z,38.40
2019-01-24T01:50:43.695Z,39.48
2019-01-24T01:53:12.910Z,40.30
2019-01-24T01:55:42.970Z,40.88
2019-01-24T01:58:14.478Z,36.90
2019-01-24T02:00:43.760Z,35.48
2019-01-24T02:03:13.113Z,37.28
2019-01-24T02:05:42.682Z,36.58
2019-01-24T02:08:11.956Z,36.42
2019-01-24T02:10:41.237Z,36.85
2019-01-24T02:13:11.866Z,36.05
2019-01-24T02:15:41.347Z,36.80
2019-01-24T02:18:10.644Z,37.80
2019-01-24T02:20:40.155Z,37.83
2019-01-24T02:23:09.681Z,34.10
2019-01-24T02:25:38.956Z,34.40
2019-01-24T02:28:09.036Z,31.90
2019-01-24T02:30:40.526Z,34.08
2019-01-24T02:33:09.795Z,32.80
2019-01-24T02:35:39.284Z,32.95
2019-01-24T02:38:08.555Z,30.55
2019-01-24T02:40:37.854Z,31.37
2019-01-24T02:43:07.144Z,30.43
2019-01-24T02:45:36.812Z,29.27
2019-01-24T02:48:06.018Z,34.20
2019-01-24T02:50:36.074Z,30.82
2019-01-24T02:53:05.368Z,26.57
2019-01-24T02:55:34.676Z,30.70
2019-01-24T02:58:03.955Z,24.57
2019-01-24T03:00:33.236Z,31.23
2019-01-24T03:03:04.518Z,26.27
2019-01-24T03:05:33.531Z,27.58
2019-01-24T03:08:02.852Z,28.75
2019-01-24T03:10:32.119Z,27.25
2019-01-24T03:13:01.428Z,22.82
2019-01-24T03:15:31.068Z,25.20
2019-01-24T03:18:00.592Z,22.87
2019-01-24T03:20:29.764Z,25.88
2019-01-24T03:22:59.060Z,28.30
2019-01-24T03:25:28.412Z,28.87
2019-01-24T03:27:58.011Z,28.57
2019-01-24T03:30:27.336Z,28.80
2019-01-24T03:32:56.781Z,25.27
2019-01-24T03:35:27.214Z,25.85
2019-01-24T03:37:56.591Z,27.85
2019-01-24T03:40:28.159Z,27.15
2019-01-24T03:42:57.767Z,24.77
2019-01-24T03:45:26.970Z,23.62
2019-01-24T03:47:56.260Z,26.55
2019-01-24T03:50:25.761Z,32.23
2019-01-24T03:52:55.380Z,31.70
2019-01-24T03:55:24.675Z,28.67
2019-01-24T03:57:53.938Z,27.93
2019-01-24T04:00:24.921Z,31.15
2019-01-24T04:02:55.507Z,29.67
2019-01-24T04:05:25.992Z,29.15
2019-01-24T04:07:55.672Z,31.25
2019-01-24T04:10:24.885Z,28.00
2019-01-24T04:12:54.138Z,30.23
2019-01-24T04:15:26.420Z,30.27
2019-01-24T04:17:55.597Z,32.13
2019-01-24T04:20:24.885Z,31.80
2019-01-24T04:22:54.163Z,30.97
2019-01-24T04:25:25.771Z,28.90
2019-01-24T04:27:54.941Z,31.82
2019-01-24T04:30:24.891Z,34.95
2019-01-24T04:32:55.086Z,35.13
2019-01-24T04:35:24.353Z,31.52
2019-01-24T04:37:53.553Z,30.77
2019-01-24T04:40:23.414Z,30.60
2019-01-24T04:42:52.604Z,32.50
2019-01-24T04:45:21.808Z,38.58
2019-01-24T04:47:51.072Z,34.90
2019-01-24T04:50:20.346Z,34.90
2019-01-24T04:52:50.379Z,33.23
2019-01-24T04:55:20.851Z,33.98
2019-01-24T04:57:50.287Z,31.15
2019-01-24T05:00:44.791Z,29.48
2019-01-24T05:03:13.999Z,31.12
2019-01-24T05:05:43.264Z,29.05
2019-01-24T05:08:12.484Z,31.52
2019-01-24T05:10:41.966Z,27.60
2019-01-24T05:13:11.350Z,32.35
2019-01-24T05:15:40.714Z,28.85
2019-01-24T05:18:10.012Z,31.60
2019-01-24T05:20:39.554Z,28.57
2019-01-24T05:23:09.087Z,31.45
2019-01-24T05:25:38.347Z,33.30
2019-01-24T05:28:07.622Z,25.90
2019-01-24T05:30:36.815Z,27.67
2019-01-24T05:33:06.418Z,31.07
2019-01-24T05:35:36.852Z,32.55
2019-01-24T05:38:06.235Z,30.60
2019-01-24T05:40:35.417Z,27.70
2019-01-24T05:43:05.118Z,27.65
2019-01-24T05:45:34.339Z,27.80
2019-01-24T05:48:03.530Z,29.80
2019-01-24T05:50:32.745Z,30.75
2019-01-24T05:53:02.097Z,30.20
2019-01-24T05:55:32.265Z,31.00
2019-01-24T05:58:01.656Z,30.32
2019-01-24T06:00:39.791Z,32.95
2019-01-24T06:03:09.340Z,33.85
2019-01-24T06:05:41.826Z,37.78
2019-01-24T06:08:09.678Z,42.35
2019-01-24T06:10:39.009Z,37.45
2019-01-24T06:13:08.199Z,38.05
2019-01-24T06:15:37.470Z,48.52
2019-01-24T06:18:06.843Z,39.55
2019-01-24T06:20:36.099Z,36.17
2019-01-24T06:23:07.447Z,33.88
2019-01-24T06:25:36.670Z,37.48
2019-01-24T06:28:06.278Z,28.60
2019-01-24T06:30:35.579Z,23.22
2019-01-24T06:33:05.089Z,28.52
2019-01-24T06:35:34.283Z,32.63
2019-01-24T06:38:05.661Z,31.35
2019-01-24T06:40:34.831Z,29.30
2019-01-24T06:43:04.383Z,26.07
2019-01-24T06:45:33.811Z,23.95
2019-01-24T06:48:03.096Z,32.73
2019-01-24T06:50:32.298Z,31.05
2019-01-24T06:53:01.525Z,28.87
2019-01-24T06:55:30.802Z,36.40
2019-01-24T06:58:00.087Z,28.55
2019-01-24T07:00:29.368Z,36.05
2019-01-24T07:02:58.595Z,34.63
2019-01-24T07:05:27.851Z,38.58
2019-01-24T07:07:57.133Z,37.20
2019-01-24T07:10:26.419Z,38.92
2019-01-24T07:12:55.786Z,21.75
2019-01-24T07:15:25.203Z,59.58
2019-01-24T07:17:54.382Z,56.75
2019-01-24T07:20:23.658Z,50.10
2019-01-24T07:22:52.939Z,35.28
2019-01-24T07:25:24.292Z,50.48
2019-01-24T07:27:53.566Z,40.20
2019-01-24T07:30:23.090Z,33.78
2019-01-24T07:32:52.359Z,31.57
2019-01-24T07:35:21.944Z,33.28
2019-01-24T07:37:51.399Z,29.27
2019-01-24T07:40:20.890Z,28.32
2019-01-24T07:42:50.292Z,38.95
2019-01-24T07:45:31.162Z,36.38
2019-01-24T07:48:00.435Z,41.65
2019-01-24T07:50:29.618Z,36.60
2019-01-24T07:52:58.906Z,29.57
2019-01-24T07:55:28.095Z,32.50
2019-01-24T07:57:58.972Z,38.42
2019-01-24T08:00:28.642Z,33.60
2019-01-24T08:02:58.031Z,35.50
2019-01-24T08:05:27.641Z,35.38
2019-01-24T08:07:57.176Z,37.67
2019-01-24T08:10:28.919Z,35.88
2019-01-24T08:12:58.147Z,36.73
2019-01-24T08:15:29.144Z,29.63
2019-01-24T08:18:01.130Z,31.52
2019-01-24T08:20:30.627Z,32.40
2019-01-24T08:22:59.906Z,34.92
2019-01-24T08:25:29.331Z,32.08
2019-01-24T08:27:58.585Z,32.10
2019-01-24T08:30:30.138Z,30.23
2019-01-24T08:32:59.471Z,32.95
2019-01-24T08:35:31.297Z,34.88
2019-01-24T08:38:01.035Z,35.15
2019-01-24T08:40:30.410Z,35.20
2019-01-24T08:42:59.757Z,32.83
2019-01-24T08:45:29.090Z,34.98
2019-01-24T08:48:00.027Z,37.55
2019-01-24T08:50:29.378Z,35.23
2019-01-24T08:52:58.621Z,30.17
2019-01-24T08:55:33.427Z,29.65
2019-01-24T08:58:02.677Z,35.70
2019-01-24T09:00:32.023Z,35.00
2019-01-24T09:03:01.350Z,37.00
2019-01-24T09:05:30.713Z,43.20
2019-01-24T09:07:59.998Z,41.92
2019-01-24T09:10:34.324Z,37.45
2019-01-24T09:13:05.895Z,32.10
2019-01-24T09:15:35.482Z,27.55
2019-01-24T09:18:05.679Z,42.05
2019-01-24T09:20:35.262Z,46.40
2019-01-24T09:23:05.919Z,29.72
2019-01-24T09:25:35.266Z,46.68
2019-01-24T09:28:04.644Z,46.85
2019-01-24T09:30:34.033Z,29.70
2019-01-24T09:33:03.305Z,36.75
2019-01-24T09:35:32.883Z,29.92
2019-01-24T09:38:02.275Z,36.08
2019-01-24T09:40:31.728Z,34.75
2019-01-24T09:43:01.008Z,27.65
2019-01-24T09:45:30.493Z,30.35
2019-01-24T09:48:01.407Z,35.45
2019-01-24T09:50:30.915Z,25.37
2019-01-24T09:53:00.231Z,28.60
2019-01-24T09:55:29.604Z,33.10
2019-01-24T09:57:58.961Z,34.43
2019-01-24T10:00:30.141Z,32.93
2019-01-24T10:03:00.258Z,29.27
2019-01-24T10:05:29.609Z,32.80
2019-01-24T10:07:59.001Z,33.88
2019-01-24T10:10:28.557Z,28.73
2019-01-24T10:12:58.224Z,36.00
2019-01-24T10:15:27.725Z,35.73
2019-01-24T10:17:56.994Z,33.38
2019-01-24T10:20:27.086Z,32.75
2019-01-24T10:22:56.419Z,31.77
2019-01-24T10:25:31.388Z,31.93
2019-01-24T10:28:00.723Z,26.75
2019-01-24T10:30:30.114Z,27.17
2019-01-24T10:32:59.368Z,28.77
2019-01-24T10:35:31.095Z,32.08
2019-01-24T10:38:02.511Z,31.07
2019-01-24T10:40:32.734Z,31.80
2019-01-24T10:43:02.972Z,37.13
2019-01-24T10:45:32.229Z,38.83
2019-01-24T10:48:01.529Z,30.80
2019-01-24T10:50:33.155Z,36.42
2019-01-24T10:53:02.514Z,39.40
2019-01-24T10:55:31.828Z,34.78
2019-01-24T10:58:02.643Z,32.08
2019-01-24T11:00:37.791Z,34.30
2019-01-24T11:03:12.389Z,30.50
2019-01-24T11:05:43.899Z,38.13
2019-01-24T11:08:13.240Z,31.80
2019-01-24T11:10:42.595Z,29.40
2019-01-24T11:13:11.922Z,32.23
2019-01-24T11:15:41.240Z,30.65
2019-01-24T11:18:11.464Z,30.48
2019-01-24T11:20:40.923Z,34.00
2019-01-24T11:23:10.190Z,30.45
2019-01-24T11:25:39.626Z,38.67
2019-01-24T11:28:10.402Z,37.03
2019-01-24T11:30:39.985Z,37.65
2019-01-24T11:33:09.659Z,36.40
2019-01-24T11:35:39.588Z,40.30
2019-01-24T11:38:09.110Z,35.55
2019-01-24T11:40:38.683Z,39.10
2019-01-24T11:43:08.431Z,39.50
2019-01-24T11:45:42.657Z,35.38
2019-01-24T11:48:12.019Z,34.15
2019-01-24T11:50:41.728Z,33.08
2019-01-24T11:53:11.400Z,33.20
2019-01-24T11:55:41.062Z,36.58
2019-01-24T11:58:10.721Z,33.18
2019-01-24T12:00:45.783Z,34.48
2019-01-24T12:03:15.310Z,36.80
2019-01-24T12:05:44.834Z,38.92
2019-01-24T12:08:14.167Z,37.40
2019-01-24T12:10:43.683Z,36.68
2019-01-24T12:13:13.090Z,38.78
2019-01-24T12:15:42.651Z,30.65
2019-01-24T12:18:12.321Z,30.75
2019-01-24T12:20:42.338Z,31.75
2019-01-24T12:23:12.114Z,33.33
2019-01-24T12:25:41.706Z,36.28
2019-01-24T12:28:11.386Z,37.35
2019-01-24T12:30:41.254Z,35.70
2019-01-24T12:33:10.859Z,33.98
2019-01-24T12:35:40.464Z,33.25
2019-01-24T12:38:09.904Z,31.15
2019-01-24T12:40:39.545Z,32.83
2019-01-24T12:43:08.954Z,33.60
2019-01-24T12:45:38.975Z,31.23
2019-01-24T12:48:08.757Z,33.67
2019-01-24T12:50:38.696Z,26.45
2019-01-24T12:53:08.746Z,32.80
2019-01-24T12:55:38.331Z,36.75
2019-01-24T12:58:07.977Z,35.70
2019-01-24T13:00:39.215Z,33.65
2019-01-24T13:03:08.955Z,37.58
2019-01-24T13:05:38.777Z,29.57
2019-01-24T13:08:08.633Z,34.27
2019-01-24T13:10:39.344Z,32.88
2019-01-24T13:13:09.763Z,29.05
2019-01-24T13:15:40.097Z,40.50
2019-01-24T13:18:09.548Z,35.30
2019-01-24T13:20:39.029Z,32.15
2019-01-24T13:23:08.431Z,25.80
2019-01-24T13:25:37.929Z,29.20
2019-01-24T13:28:07.808Z,25.55
2019-01-24T13:30:37.213Z,26.60
2019-01-24T13:33:07.779Z,25.08
2019-01-24T13:35:37.586Z,24.65
2019-01-24T13:38:08.124Z,28.20
2019-01-24T13:40:37.595Z,20.95
2019-01-24T13:43:08.361Z,26.75
2019-01-24T13:45:39.528Z,28.15
2019-01-24T13:48:08.993Z,23.55
2019-01-24T13:50:38.443Z,23.15
2019-01-24T13:53:07.885Z,28.52
2019-01-24T13:55:37.286Z,26.97
2019-01-24T13:58:07.946Z,26.25
2019-01-24T14:00:39.329Z,29.30
2019-01-24T14:03:27.185Z,28.32
2019-01-24T14:05:57.023Z,25.82
2019-01-24T14:08:26.362Z,27.95
2019-01-24T14:10:55.815Z,27.48
2019-01-24T14:13:25.205Z,33.53
2019-01-24T14:15:54.759Z,28.73
2019-01-24T14:18:24.199Z,25.27
2019-01-24T14:20:53.659Z,27.75
2019-01-24T14:23:23.504Z,28.10
2019-01-24T14:25:53.192Z,28.55
2019-01-24T14:28:22.701Z,25.85
2019-01-24T14:30:52.324Z,26.33
2019-01-24T14:33:21.644Z,26.37
2019-01-24T14:35:51.132Z,27.50
2019-01-24T14:38:20.556Z,27.40
2019-01-24T14:40:49.965Z,26.33
2019-01-24T14:43:19.423Z,25.88
2019-01-24T14:45:48.914Z,23.75
2019-01-24T14:48:18.244Z,24.87
2019-01-24T14:50:47.802Z,22.73
2019-01-24T14:53:17.180Z,34.48
2019-01-24T14:55:46.980Z,29.65
2019-01-24T14:58:16.399Z,29.60
2019-01-24T15:01:02.211Z,31.02
2019-01-24T15:03:31.633Z,30.80
2019-01-24T15:06:01.194Z,38.02
2019-01-24T15:08:30.622Z,33.95
2019-01-24T15:11:00.169Z,36.90
2019-01-24T15:13:29.622Z,35.00
2019-01-24T15:15:59.256Z,36.65
2019-01-24T15:18:28.623Z,42.40
2019-01-24T15:20:59.536Z,40.05
2019-01-24T15:23:28.881Z,39.75
2019-01-24T15:25:58.452Z,37.23
2019-01-24T15:28:27.769Z,32.08
2019-01-24T15:30:57.206Z,37.25
2019-01-24T15:33:26.642Z,37.48
2019-01-24T15:35:56.113Z,32.78
2019-01-24T15:38:25.637Z,32.88
2019-01-24T15:40:54.999Z,32.78
2019-01-24T15:43:24.432Z,35.78
2019-01-24T15:45:53.879Z,34.08
2019-01-24T15:48:23.401Z,34.95
2019-01-24T15:50:53.277Z,37.15
2019-01-24T15:53:22.826Z,34.27
2019-01-24T15:55:52.220Z,39.88
2019-01-24T15:58:21.641Z,30.43
2019-01-24T16:00:51.175Z,32.17
2019-01-24T16:03:20.654Z,32.40
2019-01-24T16:05:50.096Z,37.28
2019-01-24T16:08:19.600Z,38.38
2019-01-24T16:10:49.027Z,41.18
2019-01-24T16:13:18.570Z,40.45
2019-01-24T16:15:48.015Z,42.55
2019-01-24T16:18:17.658Z,42.17
2019-01-24T16:20:47.354Z,39.40
2019-01-24T16:23:17.183Z,37.67
2019-01-24T16:25:46.566Z,35.05
2019-01-24T16:28:16.090Z,34.88
2019-01-24T16:30:45.457Z,34.13
2019-01-24T16:33:14.955Z,29.75
2019-01-24T16:35:44.569Z,38.45
2019-01-24T16:38:13.987Z,32.90
2019-01-24T16:40:43.471Z,30.70
2019-01-24T16:43:14.332Z,28.95
2019-01-24T16:45:43.662Z,31.60
2019-01-24T16:48:13.133Z,38.60
2019-01-24T16:50:42.442Z,33.60
2019-01-24T16:53:11.861Z,39.95
2019-01-24T16:55:41.269Z,30.88
2019-01-24T16:58:10.572Z,34.98
2019-01-24T17:00:46.383Z,34.20
2019-01-24T17:03:17.335Z,30.57
2019-01-24T17:05:46.706Z,33.10
2019-01-24T17:08:16.885Z,29.23
2019-01-24T17:10:46.556Z,31.02
2019-01-24T17:13:16.360Z,33.08
2019-01-24T17:15:45.789Z,38.23
2019-01-24T17:18:15.440Z,40.65
2019-01-24T17:20:45.098Z,49.38
2019-01-24T17:23:14.549Z,56.50
2019-01-24T17:25:44.082Z,71.90
2019-01-24T17:28:13.616Z,92.97
2019-01-24T17:30:43.271Z,101.97
2019-01-24T17:33:12.745Z,95.38
2019-01-24T17:35:42.216Z,95.00
2019-01-24T17:38:11.707Z,78.30
2019-01-24T17:40:41.260Z,70.55
2019-01-24T17:43:10.769Z,51.55
2019-01-24T17:45:40.666Z,44.33
2019-01-24T17:48:09.993Z,43.23
2019-01-24T17:50:39.359Z,48.00
2019-01-24T17:53:08.686Z,39.90
2019-01-24T17:55:40.806Z,34.40
2019-01-24T17:58:11.716Z,31.42
2019-01-24T18:00:45.964Z,39.42
2019-01-24T18:03:15.435Z,36.55
2019-01-24T18:05:44.862Z,35.30
2019-01-24T18:08:14.189Z,37.95
2019-01-24T18:10:43.620Z,41.28
2019-01-24T18:13:13.166Z,40.50
2019-01-24T18:15:42.685Z,31.90
2019-01-24T18:18:14.461Z,40.58
2019-01-24T18:20:44.902Z,41.83
2019-01-24T18:23:14.709Z,38.28
2019-01-24T18:25:44.183Z,40.52
2019-01-24T18:28:14.397Z,47.43
2019-01-24T18:30:43.937Z,50.73
2019-01-24T18:33:13.542Z,47.00
2019-01-24T18:35:43.253Z,53.52
2019-01-24T18:38:12.806Z,50.45
2019-01-24T18:40:42.615Z,40.52
2019-01-24T18:43:19.635Z,42.88
2019-01-24T18:45:49.859Z,45.33
2019-01-24T18:48:19.526Z,49.13
2019-01-24T18:50:49.186Z,45.28
2019-01-24T18:53:18.725Z,41.30
2019-01-24T18:55:48.194Z,42.10
2019-01-24T18:58:17.658Z,43.75
2019-01-24T19:00:47.780Z,50.90
2019-01-24T19:03:17.350Z,34.55
2019-01-24T19:05:47.119Z,39.00
2019-01-24T19:08:16.907Z,44.63
2019-01-24T19:10:46.558Z,39.83
2019-01-24T19:13:16.182Z,42.33
2019-01-24T19:15:47.779Z,35.55
2019-01-24T19:18:17.284Z,32.17
2019-01-24T19:20:46.920Z,37.55
2019-01-24T19:23:16.424Z,34.08
2019-01-24T19:25:45.993Z,33.20
2019-01-24T19:28:18.058Z,37.90
2019-01-24T19:30:47.844Z,33.63
2019-01-24T19:33:17.435Z,32.05
2019-01-24T19:35:47.031Z,39.75
2019-01-24T19:38:17.620Z,28.83
2019-01-24T19:40:47.169Z,38.73
2019-01-24T19:43:17.305Z,37.33
2019-01-24T19:45:46.801Z,39.83
2019-01-24T19:48:16.488Z,44.40
2019-01-24T19:50:46.047Z,38.30
2019-01-24T19:53:15.543Z,42.08
2019-01-24T19:55:45.159Z,41.53
2019-01-24T19:58:15.031Z,48.52
2019-01-24T20:00:44.476Z,37.83
2019-01-24T20:03:13.922Z,41.65
2019-01-24T20:05:43.397Z,45.25
2019-01-24T20:08:13.109Z,40.50
2019-01-24T20:10:42.579Z,38.30
2019-01-24T20:13:11.923Z,46.98
2019-01-24T20:15:41.829Z,40.52
2019-01-24T20:18:11.232Z,43.98
2019-01-24T20:20:40.940Z,43.87
2019-01-24T20:23:10.490Z,40.38
2019-01-24T20:25:40.583Z,47.35
2019-01-24T20:28:10.161Z,43.28
2019-01-24T20:30:39.877Z,43.05
2019-01-24T20:33:09.410Z,43.85
2019-01-24T20:35:41.879Z,46.98
2019-01-24T20:38:11.912Z,43.38
2019-01-24T20:40:41.506Z,44.73
2019-01-24T20:43:12.610Z,42.95
2019-01-24T20:45:42.446Z,46.33
2019-01-24T20:48:11.935Z,41.55
2019-01-24T20:50:41.412Z,45.38
2019-01-24T20:53:11.474Z,46.80
2019-01-24T20:55:41.043Z,46.80
2019-01-24T20:58:10.693Z,41.02
2019-01-24T21:00:40.152Z,49.10
2019-01-24T21:03:12.100Z,42.27
2019-01-24T21:05:41.501Z,50.35
2019-01-24T21:08:11.415Z,49.18
2019-01-24T21:10:40.882Z,36.40
2019-01-24T21:13:11.042Z,47.40
2019-01-24T21:15:40.413Z,46.35
2019-01-24T21:18:09.702Z,42.15
2019-01-24T21:20:39.016Z,41.65
2019-01-24T21:23:08.794Z,44.33
2019-01-24T21:25:38.196Z,50.08
2019-01-24T21:28:07.556Z,50.17
2019-01-24T21:30:38.107Z,52.40
2019-01-24T21:33:09.159Z,50.83
2019-01-24T21:35:38.958Z,49.80
2019-01-24T21:38:10.249Z,46.85
2019-01-24T21:40:39.682Z,43.63
2019-01-24T21:43:10.231Z,43.80
2019-01-24T21:45:40.507Z,43.33
2019-01-24T21:48:09.847Z,43.78
2019-01-24T21:50:39.102Z,43.65
2019-01-24T21:53:08.546Z,46.98
2019-01-24T21:55:39.645Z,44.42
2019-01-24T21:58:11.378Z,41.50
2019-01-24T22:00:40.725Z,41.42
2019-01-24T22:03:10.062Z,50.17
2019-01-24T22:05:40.605Z,48.87
2019-01-24T22:08:10.042Z,44.98
2019-01-24T22:10:39.606Z,42.05
2019-01-24T22:13:10.634Z,45.30
2019-01-24T22:15:39.924Z,45.38
2019-01-24T22:18:09.311Z,41.28
2019-01-24T22:20:38.883Z,47.20
2019-01-24T22:23:08.630Z,43.05
2019-01-24T22:25:37.987Z,38.58
2019-01-24T22:28:08.378Z,40.15
2019-01-24T22:30:42.543Z,42.67
2019-01-24T22:33:11.875Z,43.68
2019-01-24T22:35:41.125Z,45.45
2019-01-24T22:38:10.419Z,46.02
2019-01-24T22:40:39.783Z,42.55
2019-01-24T22:43:09.167Z,44.75
2019-01-24T22:45:38.367Z,45.38
2019-01-24T22:48:10.155Z,46.33
2019-01-24T22:50:39.537Z,43.35
2019-01-24T22:53:09.112Z,39.60
2019-01-24T22:55:38.397Z,36.88
2019-01-24T22:58:07.839Z,46.00
2019-01-24T23:01:17.284Z,42.90
2019-01-24T23:03:54.343Z,46.18
2019-01-24T23:06:23.694Z,43.55
2019-01-24T23:08:55.091Z,39.67
2019-01-24T23:11:24.390Z,45.70
2019-01-24T23:13:53.707Z,39.10
2019-01-24T23:16:23.004Z,42.15
2019-01-24T23:18:52.550Z,44.35
2019-01-24T23:21:23.701Z,40.98
2019-01-24T23:23:53.095Z,37.40
2019-01-24T23:26:23.344Z,41.23
2019-01-24T23:28:53.052Z,38.92
2019-01-24T23:31:22.715Z,43.35
2019-01-24T23:33:52.778Z,38.23
2019-01-24T23:36:24.440Z,35.13
2019-01-24T23:38:56.611Z,40.63
2019-01-24T23:41:25.983Z,38.58
2019-01-24T23:43:56.711Z,40.75
2019-01-24T23:46:25.965Z,37.50
2019-01-24T23:48:55.237Z,39.38
2019-01-24T23:51:24.823Z,40.30
2019-01-24T23:53:54.340Z,40.00
2019-01-24T23:56:25.667Z,36.33
2019-01-24T23:58:56.545Z,44.13
